sensor_id;sensor_type;location;lat;lon;timestamp;pressure;altitude;pressure_sealevel;temperature;humidity
52949;BME280;38812;50.942;3.644;2023-02-04T00:01:19;103353.22;;;9.43;100.00
52949;BME280;38812;50.942;3.644;2023-02-04T00:03:44;103346.06;;;9.36;100.00
52949;BME280;38812;50.942;3.644;2023-02-04T00:06:10;103344.28;;;9.35;100.00
52949;BME280;38812;50.942;3.644;2023-02-04T00:08:35;103334.88;;;9.43;100.00
52949;BME280;38812;50.942;3.644;2023-02-04T00:11:02;103346.16;;;9.40;100.00
52949;BME280;38812;50.942;3.644;2023-02-04T00:13:27;103345.25;;;9.38;100.00
52949;BME280;38812;50.942;3.644;2023-02-04T00:15:53;103356.72;;;9.42;100.00
52949;BME280;38812;50.942;3.644;2023-02-04T00:18:18;103352.28;;;9.39;100.00
52949;BME280;38812;50.942;3.644;2023-02-04T00:20:44;103357.59;;;9.42;100.00
52949;BME280;38812;50.942;3.644;2023-02-04T00:23:09;103348.69;;;9.36;100.00
52949;BME280;38812;50.942;3.644;2023-02-04T00:25:34;103349.69;;;9.41;100.00
52949;BME280;38812;50.942;3.644;2023-02-04T00:28:00;103353.38;;;9.49;100.00
52949;BME280;38812;50.942;3.644;2023-02-04T00:30:25;103347.81;;;9.37;100.00
52949;BME280;38812;50.942;3.644;2023-02-04T00:32:50;103358.25;;;9.34;100.00
52949;BME280;38812;50.942;3.644;2023-02-04T00:35:19;103359.91;;;9.28;100.00
52949;BME280;38812;50.942;3.644;2023-02-04T00:37:44;103359.91;;;9.28;100.00
52949;BME280;38812;50.942;3.644;2023-02-04T00:40:10;103354.84;;;9.38;100.00
52949;BME280;38812;50.942;3.644;2023-02-04T00:42:36;103358.19;;;9.31;100.00
52949;BME280;38812;50.942;3.644;2023-02-04T00:45:01;103361.59;;;9.26;100.00
52949;BME280;38812;50.942;3.644;2023-02-04T00:47:26;103364.28;;;9.30;100.00
52949;BME280;38812;50.942;3.644;2023-02-04T00:49:52;103353.81;;;9.31;100.00
52949;BME280;38812;50.942;3.644;2023-02-04T00:52:17;103360.66;;;9.24;100.00
52949;BME280;38812;50.942;3.644;2023-02-04T00:54:42;103368.53;;;9.24;100.00
52949;BME280;38812;50.942;3.644;2023-02-04T00:57:08;103345.53;;;9.14;100.00
52949;BME280;38812;50.942;3.644;2023-02-04T00:59:33;103361.72;;;9.33;100.00
52949;BME280;38812;50.942;3.644;2023-02-04T01:01:58;103366.84;;;9.26;100.00
52949;BME280;38812;50.942;3.644;2023-02-04T01:04:24;103365.16;;;9.28;100.00
52949;BME280;38812;50.942;3.644;2023-02-04T01:06:50;103370.28;;;9.24;100.00
52949;BME280;38812;50.942;3.644;2023-02-04T01:09:15;103372.81;;;9.21;100.00
52949;BME280;38812;50.942;3.644;2023-02-04T01:11:41;103371.03;;;9.20;100.00
52949;BME280;38812;50.942;3.644;2023-02-04T01:14:06;103370.91;;;9.15;100.00
52949;BME280;38812;50.942;3.644;2023-02-04T01:16:32;103371.94;;;9.20;100.00
52949;BME280;38812;50.942;3.644;2023-02-04T01:18:57;103374.38;;;9.14;100.00
52949;BME280;38812;50.942;3.644;2023-02-04T01:21:24;103374.34;;;9.13;100.00
52949;BME280;38812;50.942;3.644;2023-02-04T01:23:50;103370.88;;;9.14;100.00
52949;BME280;38812;50.942;3.644;2023-02-04T01:26:17;103375.31;;;9.16;100.00
52949;BME280;38812;50.942;3.644;2023-02-04T01:28:43;103376.00;;;9.08;100.00
52949;BME280;38812;50.942;3.644;2023-02-04T01:31:09;103381.38;;;9.14;100.00
52949;BME280;38812;50.942;3.644;2023-02-04T01:33:34;103384.88;;;9.14;100.00
52949;BME280;38812;50.942;3.644;2023-02-04T01:35:59;103377.72;;;9.07;100.00
52949;BME280;38812;50.942;3.644;2023-02-04T01:38:25;103383.00;;;9.09;100.00
52949;BME280;38812;50.942;3.644;2023-02-04T01:40:51;103384.59;;;9.02;100.00
52949;BME280;38812;50.942;3.644;2023-02-04T01:43:17;103392.28;;;8.96;100.00
52949;BME280;38812;50.942;3.644;2023-02-04T01:45:44;103377.22;;;8.89;100.00
52949;BME280;38812;50.942;3.644;2023-02-04T01:48:09;103378.06;;;8.86;100.00
52949;BME280;38812;50.942;3.644;2023-02-04T01:50:36;103386.88;;;8.90;100.00
52949;BME280;38812;50.942;3.644;2023-02-04T01:53:02;103379.72;;;8.83;100.00
52949;BME280;38812;50.942;3.644;2023-02-04T01:55:29;103396.41;;;8.86;100.00
52949;BME280;38812;50.942;3.644;2023-02-04T01:57:56;103384.94;;;8.83;100.00
52949;BME280;38812;50.942;3.644;2023-02-04T02:00:32;103397.22;;;8.84;100.00
52949;BME280;38812;50.942;3.644;2023-02-04T02:02:58;103385.59;;;8.74;100.00
52949;BME280;38812;50.942;3.644;2023-02-04T02:05:39;103389.13;;;8.76;100.00
52949;BME280;38812;50.942;3.644;2023-02-04T02:08:06;103394.72;;;8.90;100.00
52949;BME280;38812;50.942;3.644;2023-02-04T02:10:32;103382.28;;;8.81;100.00
52949;BME280;38812;50.942;3.644;2023-02-04T02:12:58;103387.44;;;8.78;100.00
52949;BME280;38812;50.942;3.644;2023-02-04T02:15:24;103394.38;;;8.76;100.00
52949;BME280;38812;50.942;3.644;2023-02-04T02:17:51;103383.00;;;8.76;100.00
52949;BME280;38812;50.942;3.644;2023-02-04T02:20:19;103389.09;;;8.75;100.00
52949;BME280;38812;50.942;3.644;2023-02-04T02:22:57;103396.09;;;8.76;100.00
52949;BME280;38812;50.942;3.644;2023-02-04T02:25:25;103394.25;;;8.72;100.00
52949;BME280;38812;50.942;3.644;2023-02-04T02:27:51;103395.94;;;8.70;100.00
52949;BME280;38812;50.942;3.644;2023-02-04T02:30:16;103409.31;;;8.79;100.00
52949;BME280;38812;50.942;3.644;2023-02-04T02:32:44;103401.34;;;8.76;100.00
52949;BME280;38812;50.942;3.644;2023-02-04T02:35:10;103397.94;;;8.78;100.00
52949;BME280;38812;50.942;3.644;2023-02-04T02:37:36;103402.09;;;8.72;100.00
52949;BME280;38812;50.942;3.644;2023-02-04T02:40:02;103405.50;;;8.68;100.00
52949;BME280;38812;50.942;3.644;2023-02-04T02:42:28;103417.69;;;8.66;100.00
52949;BME280;38812;50.942;3.644;2023-02-04T02:44:54;103410.53;;;8.60;100.00
52949;BME280;38812;50.942;3.644;2023-02-04T02:47:21;103410.59;;;8.62;100.00
52949;BME280;38812;50.942;3.644;2023-02-04T02:49:49;103407.16;;;8.64;100.00
52949;BME280;38812;50.942;3.644;2023-02-04T02:52:16;103398.16;;;8.54;100.00
52949;BME280;38812;50.942;3.644;2023-02-04T02:54:41;103406.13;;;8.59;100.00
52949;BME280;38812;50.942;3.644;2023-02-04T02:57:20;103415.81;;;8.62;100.00
52949;BME280;38812;50.942;3.644;2023-02-04T02:59:46;103410.34;;;8.54;100.00
52949;BME280;38812;50.942;3.644;2023-02-04T03:02:15;103419.19;;;8.57;100.00
52949;BME280;38812;50.942;3.644;2023-02-04T03:04:44;103419.09;;;8.54;100.00
52949;BME280;38812;50.942;3.644;2023-02-04T03:07:11;103416.41;;;8.51;100.00
52949;BME280;38812;50.942;3.644;2023-02-04T03:09:38;103430.56;;;8.58;100.00
52949;BME280;38812;50.942;3.644;2023-02-04T03:12:04;103432.28;;;8.57;100.00
52949;BME280;38812;50.942;3.644;2023-02-04T03:14:30;103442.91;;;8.62;100.00
52949;BME280;38812;50.942;3.644;2023-02-04T03:16:56;103442.88;;;8.61;100.00
52949;BME280;38812;50.942;3.644;2023-02-04T03:19:25;103434.88;;;8.56;100.00
52949;BME280;38812;50.942;3.644;2023-02-04T03:21:52;103440.81;;;8.50;100.00
52949;BME280;38812;50.942;3.644;2023-02-04T03:24:18;103438.19;;;8.50;100.00
52949;BME280;38812;50.942;3.644;2023-02-04T03:26:43;103450.53;;;8.54;100.00
52949;BME280;38812;50.942;3.644;2023-02-04T03:29:09;103433.72;;;8.46;100.00
52949;BME280;38812;50.942;3.644;2023-02-04T03:31:35;103444.41;;;8.54;100.00
52949;BME280;38812;50.942;3.644;2023-02-04T03:34:02;103443.63;;;8.56;100.00
52949;BME280;38812;50.942;3.644;2023-02-04T03:36:27;103439.78;;;8.44;100.00
52949;BME280;38812;50.942;3.644;2023-02-04T03:38:52;103449.53;;;8.49;100.00
52949;BME280;38812;50.942;3.644;2023-02-04T03:41:18;103441.50;;;8.43;100.00
52949;BME280;38812;50.942;3.644;2023-02-04T03:43:44;103450.44;;;8.51;100.00
52949;BME280;38812;50.942;3.644;2023-02-04T03:46:09;103456.41;;;8.46;100.00
52949;BME280;38812;50.942;3.644;2023-02-04T03:48:35;103453.81;;;8.47;100.00
52949;BME280;38812;50.942;3.644;2023-02-04T03:51:00;103446.91;;;8.49;100.00
52949;BME280;38812;50.942;3.644;2023-02-04T03:53:25;103451.16;;;8.44;100.00
52949;BME280;38812;50.942;3.644;2023-02-04T03:55:51;103439.59;;;8.38;100.00
52949;BME280;38812;50.942;3.644;2023-02-04T03:58:16;103448.44;;;8.41;100.00
52949;BME280;38812;50.942;3.644;2023-02-04T04:00:42;103449.38;;;8.43;100.00
52949;BME280;38812;50.942;3.644;2023-02-04T04:03:07;103456.41;;;8.46;100.00
52949;BME280;38812;50.942;3.644;2023-02-04T04:05:33;103451.88;;;8.40;100.00
52949;BME280;38812;50.942;3.644;2023-02-04T04:07:58;103449.31;;;8.42;100.00
52949;BME280;38812;50.942;3.644;2023-02-04T04:10:24;103459.84;;;8.43;100.00
52949;BME280;38812;50.942;3.644;2023-02-04T04:12:50;103458.13;;;8.44;100.00
52949;BME280;38812;50.942;3.644;2023-02-04T04:15:15;103453.56;;;8.38;100.00
52949;BME280;38812;50.942;3.644;2023-02-04T04:17:41;103465.94;;;8.42;100.00
52949;BME280;38812;50.942;3.644;2023-02-04T04:20:06;103461.44;;;8.38;100.00
52949;BME280;38812;50.942;3.644;2023-02-04T04:22:32;103473.78;;;8.42;100.00
52949;BME280;38812;50.942;3.644;2023-02-04T04:24:58;103473.72;;;8.41;100.00
52949;BME280;38812;50.942;3.644;2023-02-04T04:27:23;103476.31;;;8.39;100.00
52949;BME280;38812;50.942;3.644;2023-02-04T04:29:50;103474.44;;;8.35;100.00
52949;BME280;38812;50.942;3.644;2023-02-04T04:32:15;103478.09;;;8.40;100.00
52949;BME280;38812;50.942;3.644;2023-02-04T04:34:41;103472.84;;;8.40;100.00
52949;BME280;38812;50.942;3.644;2023-02-04T04:37:06;103485.19;;;8.44;100.00
52949;BME280;38812;50.942;3.644;2023-02-04T04:39:32;103481.63;;;8.42;100.00
52949;BME280;38812;50.942;3.644;2023-02-04T04:41:57;103473.63;;;8.38;100.00
52949;BME280;38812;50.942;3.644;2023-02-04T04:44:23;103470.97;;;8.36;100.00
52949;BME280;38812;50.942;3.644;2023-02-04T04:46:48;103472.66;;;8.34;100.00
52949;BME280;38812;50.942;3.644;2023-02-04T04:49:13;103476.16;;;8.35;100.00
52949;BME280;38812;50.942;3.644;2023-02-04T04:51:40;103485.19;;;8.44;100.00
52949;BME280;38812;50.942;3.644;2023-02-04T04:54:06;103486.88;;;8.42;100.00
52949;BME280;38812;50.942;3.644;2023-02-04T04:56:32;103466.41;;;8.31;100.00
52949;BME280;38812;50.942;3.644;2023-02-04T04:58:57;103488.47;;;8.37;100.00
52949;BME280;38812;50.942;3.644;2023-02-04T05:01:22;103482.25;;;8.34;100.00
52949;BME280;38812;50.942;3.644;2023-02-04T05:03:48;103493.75;;;8.39;100.00
52949;BME280;38812;50.942;3.644;2023-02-04T05:06:13;103489.22;;;8.33;100.00
52949;BME280;38812;50.942;3.644;2023-02-04T05:08:39;103479.56;;;8.32;100.00
52949;BME280;38812;50.942;3.644;2023-02-04T05:11:04;103488.50;;;8.39;100.00
52949;BME280;38812;50.942;3.644;2023-02-04T05:13:30;103491.94;;;8.36;100.00
52949;BME280;38812;50.942;3.644;2023-02-04T05:15:55;103476.72;;;8.26;100.00
52949;BME280;38812;50.942;3.644;2023-02-04T05:18:20;103478.50;;;8.27;100.00
52949;BME280;38812;50.942;3.644;2023-02-04T05:20:46;103493.47;;;8.31;100.00
52949;BME280;38812;50.942;3.644;2023-02-04T05:23:11;103492.66;;;8.32;100.00
52949;BME280;38812;50.942;3.644;2023-02-04T05:25:37;103486.38;;;8.27;100.00
52949;BME280;38812;50.942;3.644;2023-02-04T05:28:03;103490.84;;;8.31;100.00
52949;BME280;38812;50.942;3.644;2023-02-04T05:30:28;103486.47;;;8.30;100.00
52949;BME280;38812;50.942;3.644;2023-02-04T05:32:53;103474.94;;;8.25;100.00
52949;BME280;38812;50.942;3.644;2023-02-04T05:35:19;103481.22;;;8.30;100.00
52949;BME280;38812;50.942;3.644;2023-02-04T05:37:44;103491.69;;;8.30;100.00
52949;BME280;38812;50.942;3.644;2023-02-04T05:40:11;103479.34;;;8.26;100.00
52949;BME280;38812;50.942;3.644;2023-02-04T05:42:37;103489.81;;;8.26;100.00
52949;BME280;38812;50.942;3.644;2023-02-04T05:45:03;103495.16;;;8.29;100.00
52949;BME280;38812;50.942;3.644;2023-02-04T05:47:28;103493.38;;;8.28;100.00
52949;BME280;38812;50.942;3.644;2023-02-04T05:49:54;103489.72;;;8.23;100.00
52949;BME280;38812;50.942;3.644;2023-02-04T05:52:19;103496.84;;;8.27;100.00
52949;BME280;38812;50.942;3.644;2023-02-04T05:54:45;103480.03;;;8.19;100.00
52949;BME280;38812;50.942;3.644;2023-02-04T05:57:10;103495.91;;;8.25;100.00
52949;BME280;38812;50.942;3.644;2023-02-04T05:59:35;103488.94;;;8.25;100.00
52949;BME280;38812;50.942;3.644;2023-02-04T06:02:01;103490.44;;;8.17;100.00
52949;BME280;38812;50.942;3.644;2023-02-04T06:04:26;103500.19;;;8.23;100.00
52949;BME280;38812;50.942;3.644;2023-02-04T06:06:51;103504.84;;;8.32;100.00
52949;BME280;38812;50.942;3.644;2023-02-04T06:09:17;103513.41;;;8.26;100.00
52949;BME280;38812;50.942;3.644;2023-02-04T06:11:42;103501.91;;;8.21;100.00
52949;BME280;38812;50.942;3.644;2023-02-04T06:14:08;103507.06;;;8.18;100.00
52949;BME280;38812;50.942;3.644;2023-02-04T06:16:35;103509.78;;;8.21;100.00
52949;BME280;38812;50.942;3.644;2023-02-04T06:19:00;103506.06;;;8.14;100.00
52949;BME280;38812;50.942;3.644;2023-02-04T06:21:26;103506.84;;;8.12;100.00
52949;BME280;38812;50.942;3.644;2023-02-04T06:23:51;103511.97;;;8.09;100.00
52949;BME280;38812;50.942;3.644;2023-02-04T06:26:17;103498.69;;;8.03;100.00
52949;BME280;38812;50.942;3.644;2023-02-04T06:28:42;103519.22;;;8.16;100.00
52949;BME280;38812;50.942;3.644;2023-02-04T06:31:08;103513.56;;;8.04;100.00
52949;BME280;38812;50.942;3.644;2023-02-04T06:33:35;103521.47;;;8.05;100.00
52949;BME280;38812;50.942;3.644;2023-02-04T06:36:04;103529.28;;;8.04;100.00
52949;BME280;38812;50.942;3.644;2023-02-04T06:38:30;103523.16;;;8.03;100.00
52949;BME280;38812;50.942;3.644;2023-02-04T06:40:55;103535.34;;;8.03;100.00
52949;BME280;38812;50.942;3.644;2023-02-04T06:43:21;103540.50;;;8.00;100.00
52949;BME280;38812;50.942;3.644;2023-02-04T06:45:48;103527.41;;;8.00;100.00
52949;BME280;38812;50.942;3.644;2023-02-04T06:48:15;103535.28;;;8.00;100.00
52949;BME280;38812;50.942;3.644;2023-02-04T06:50:40;103523.56;;;7.88;100.00
52949;BME280;38812;50.942;3.644;2023-02-04T06:53:06;103534.22;;;7.95;100.00
52949;BME280;38812;50.942;3.644;2023-02-04T06:55:31;103518.06;;;7.81;100.00
52949;BME280;38812;50.942;3.644;2023-02-04T06:57:56;103532.44;;;7.94;100.00
52949;BME280;38812;50.942;3.644;2023-02-04T07:00:22;103540.19;;;7.90;100.00
52949;BME280;38812;50.942;3.644;2023-02-04T07:02:47;103540.03;;;7.86;100.00
52949;BME280;38812;50.942;3.644;2023-02-04T07:05:12;103536.63;;;7.88;100.00
52949;BME280;38812;50.942;3.644;2023-02-04T07:07:38;103540.00;;;7.84;100.00
52949;BME280;38812;50.942;3.644;2023-02-04T07:10:03;103548.72;;;7.85;100.00
52949;BME280;38812;50.942;3.644;2023-02-04T07:12:29;103546.78;;;7.78;100.00
52949;BME280;38812;50.942;3.644;2023-02-04T07:14:54;103549.94;;;7.69;100.00
52949;BME280;38812;50.942;3.644;2023-02-04T07:17:20;103551.31;;;7.58;100.00
52949;BME280;38812;50.942;3.644;2023-02-04T07:19:45;103535.31;;;7.49;100.00
52949;BME280;38812;50.942;3.644;2023-02-04T07:22:11;103548.38;;;7.49;100.00
52949;BME280;38812;50.942;3.644;2023-02-04T07:24:36;103560.84;;;7.56;100.00
52949;BME280;38812;50.942;3.644;2023-02-04T07:27:01;103557.41;;;7.57;100.00
52949;BME280;38812;50.942;3.644;2023-02-04T07:29:27;103563.47;;;7.56;100.00
52949;BME280;38812;50.942;3.644;2023-02-04T07:31:52;103559.00;;;7.53;100.00
52949;BME280;38812;50.942;3.644;2023-02-04T07:34:18;103560.84;;;7.56;100.00
52949;BME280;38812;50.942;3.644;2023-02-04T07:36:44;103568.06;;;7.63;100.00
52949;BME280;38812;50.942;3.644;2023-02-04T07:39:09;103565.53;;;7.66;100.00
52949;BME280;38812;50.942;3.644;2023-02-04T07:41:35;103557.59;;;7.63;100.00
52949;BME280;38812;50.942;3.644;2023-02-04T07:44:01;103579.56;;;7.68;100.00
52949;BME280;38812;50.942;3.644;2023-02-04T07:46:26;103559.19;;;7.60;100.00
52949;BME280;38812;50.942;3.644;2023-02-04T07:48:52;103566.38;;;7.65;100.00
52949;BME280;38812;50.942;3.644;2023-02-04T07:51:17;103578.75;;;7.69;100.00
52949;BME280;38812;50.942;3.644;2023-02-04T07:53:43;103579.56;;;7.68;100.00
52949;BME280;38812;50.942;3.644;2023-02-04T07:56:08;103578.63;;;7.66;100.00
52949;BME280;38812;50.942;3.644;2023-02-04T07:58:33;103576.84;;;7.65;100.00
52949;BME280;38812;50.942;3.644;2023-02-04T08:00:59;103580.50;;;7.70;100.00
52949;BME280;38812;50.942;3.644;2023-02-04T08:03:25;103587.63;;;7.74;100.00
52949;BME280;38812;50.942;3.644;2023-02-04T08:05:51;103586.81;;;7.75;100.00
52949;BME280;38812;50.942;3.644;2023-02-04T08:08:17;103597.41;;;7.80;100.00
52949;BME280;38812;50.942;3.644;2023-02-04T08:10:42;103587.94;;;7.83;100.00
52949;BME280;38812;50.942;3.644;2023-02-04T08:13:08;103594.06;;;7.84;100.00
52949;BME280;38812;50.942;3.644;2023-02-04T08:15:33;103587.81;;;7.80;100.00
52949;BME280;38812;50.942;3.644;2023-02-04T08:17:58;103586.16;;;7.82;100.00
52949;BME280;38812;50.942;3.644;2023-02-04T08:20:24;103595.38;;;7.97;100.00
52949;BME280;38812;50.942;3.644;2023-02-04T08:22:49;103593.78;;;8.02;100.00
52949;BME280;38812;50.942;3.644;2023-02-04T08:25:15;103602.56;;;8.04;100.00
52949;BME280;38812;50.942;3.644;2023-02-04T08:27:40;103592.09;;;8.04;100.00
52949;BME280;38812;50.942;3.644;2023-02-04T08:30:07;103597.34;;;8.04;100.00
52949;BME280;38812;50.942;3.644;2023-02-04T08:32:33;103586.69;;;7.98;100.00
52949;BME280;38812;50.942;3.644;2023-02-04T08:34:58;103603.78;;;8.13;100.00
52949;BME280;38812;50.942;3.644;2023-02-04T08:37:23;103605.72;;;8.19;100.00
52949;BME280;38812;50.942;3.644;2023-02-04T08:39:49;103613.75;;;8.25;100.00
52949;BME280;38812;50.942;3.644;2023-02-04T08:42:15;103602.31;;;8.21;100.00
52949;BME280;38812;50.942;3.644;2023-02-04T08:44:41;103607.63;;;8.24;100.00
52949;BME280;38812;50.942;3.644;2023-02-04T08:47:07;103613.97;;;8.31;100.00
52949;BME280;38812;50.942;3.644;2023-02-04T08:49:32;103621.22;;;8.38;100.00
52949;BME280;38812;50.942;3.644;2023-02-04T08:51:58;103611.69;;;8.40;100.00
52949;BME280;38812;50.942;3.644;2023-02-04T08:54:23;103613.59;;;8.46;100.00
52949;BME280;38812;50.942;3.644;2023-02-04T08:56:50;103623.56;;;8.57;100.00
52949;BME280;38812;50.942;3.644;2023-02-04T08:59:15;103628.81;;;8.57;100.00
52949;BME280;38812;50.942;3.644;2023-02-04T09:01:41;103631.50;;;8.59;100.00
52949;BME280;38812;50.942;3.644;2023-02-04T09:04:06;103631.25;;;8.80;100.00
52949;BME280;38812;50.942;3.644;2023-02-04T09:06:32;103633.03;;;8.81;100.00
52949;BME280;38812;50.942;3.644;2023-02-04T09:08:57;103627.81;;;8.81;100.00
52949;BME280;38812;50.942;3.644;2023-02-04T09:11:22;103626.03;;;8.80;100.00
52949;BME280;38812;50.942;3.644;2023-02-04T09:13:48;103635.94;;;8.90;100.00
52949;BME280;38812;50.942;3.644;2023-02-04T09:16:13;103631.31;;;9.11;100.00
52949;BME280;38812;50.942;3.644;2023-02-04T09:18:39;103639.59;;;9.25;100.00
52949;BME280;38812;50.942;3.644;2023-02-04T09:21:04;103639.94;;;9.37;100.00
52949;BME280;38812;50.942;3.644;2023-02-04T09:23:30;103635.34;;;9.60;100.00
52949;BME280;38812;50.942;3.644;2023-02-04T09:25:55;103624.84;;;9.60;100.00
52949;BME280;38812;50.942;3.644;2023-02-04T09:28:21;103630.31;;;9.68;100.00
52949;BME280;38812;50.942;3.644;2023-02-04T09:30:46;103636.00;;;9.84;100.00
52949;BME280;38812;50.942;3.644;2023-02-04T09:33:13;103641.63;;;10.00;100.00
52949;BME280;38812;50.942;3.644;2023-02-04T09:35:39;103634.94;;;10.11;100.00
52949;BME280;38812;50.942;3.644;2023-02-04T09:38:04;103641.00;;;10.08;100.00
52949;BME280;38812;50.942;3.644;2023-02-04T09:40:32;103624.13;;;10.00;100.00
52949;BME280;38812;50.942;3.644;2023-02-04T09:43:03;103644.31;;;10.01;100.00
52949;BME280;38812;50.942;3.644;2023-02-04T09:45:32;103643.56;;;10.07;100.00
52949;BME280;38812;50.942;3.644;2023-02-04T09:47:59;103639.28;;;10.10;100.00
52949;BME280;38812;50.942;3.644;2023-02-04T09:50:27;103646.66;;;9.90;100.00
52949;BME280;38812;50.942;3.644;2023-02-04T09:52:55;103652.56;;;9.82;100.00
52949;BME280;38812;50.942;3.644;2023-02-04T09:55:27;103649.78;;;9.77;100.00
52949;BME280;38812;50.942;3.644;2023-02-04T09:57:53;103650.91;;;9.85;100.00
52949;BME280;38812;50.942;3.644;2023-02-04T10:00:22;103660.47;;;9.83;100.00
52949;BME280;38812;50.942;3.644;2023-02-04T10:02:48;103655.13;;;9.80;100.00
52949;BME280;38812;50.942;3.644;2023-02-04T10:05:18;103663.19;;;9.86;100.00
52949;BME280;38812;50.942;3.644;2023-02-04T10:07:45;103666.75;;;9.88;100.00
52949;BME280;38812;50.942;3.644;2023-02-04T10:10:18;103674.94;;;10.01;100.00
52949;BME280;38812;50.942;3.644;2023-02-04T10:12:45;103676.75;;;10.03;100.00
52949;BME280;38812;50.942;3.644;2023-02-04T10:15:15;103687.09;;;9.97;100.00
52949;BME280;38812;50.942;3.644;2023-02-04T10:17:44;103677.56;;;10.01;100.00
52949;BME280;38812;50.942;3.644;2023-02-04T10:20:18;103692.22;;;10.24;100.00
52949;BME280;38812;50.942;3.644;2023-02-04T10:22:45;103690.50;;;10.26;100.00
52949;BME280;38812;50.942;3.644;2023-02-04T10:25:13;103683.16;;;10.47;100.00
52949;BME280;38812;50.942;3.644;2023-02-04T10:27:49;103683.25;;;10.50;100.00
52949;BME280;38812;50.942;3.644;2023-02-04T10:30:38;103680.72;;;10.55;100.00
52949;BME280;38812;50.942;3.644;2023-02-04T10:33:20;103674.28;;;10.42;100.00
52949;BME280;38812;50.942;3.644;2023-02-04T10:35:50;103685.09;;;10.54;100.00
52949;BME280;38812;50.942;3.644;2023-02-04T10:38:17;103690.94;;;10.43;100.00
52949;BME280;38812;50.942;3.644;2023-02-04T10:40:42;103691.69;;;10.37;100.00
52949;BME280;38812;50.942;3.644;2023-02-04T10:43:15;103699.31;;;10.28;100.00
52949;BME280;38812;50.942;3.644;2023-02-04T10:45:53;103704.59;;;10.28;100.00
52949;BME280;38812;50.942;3.644;2023-02-04T10:48:19;103689.03;;;10.36;100.00
52949;BME280;38812;50.942;3.644;2023-02-04T10:50:45;103691.84;;;10.45;100.00
52949;BME280;38812;50.942;3.644;2023-02-04T10:53:19;103687.06;;;10.64;100.00
52949;BME280;38812;50.942;3.644;2023-02-04T10:56:05;103681.03;;;10.69;100.00
52949;BME280;38812;50.942;3.644;2023-02-04T10:58:38;103686.97;;;10.58;100.00
52949;BME280;38812;50.942;3.644;2023-02-04T11:01:08;103681.78;;;10.63;100.00
52949;BME280;38812;50.942;3.644;2023-02-04T11:03:36;103670.28;;;10.58;100.00
52949;BME280;38812;50.942;3.644;2023-02-04T11:06:08;103677.28;;;10.57;100.00
52949;BME280;38812;50.942;3.644;2023-02-04T11:08:35;103679.53;;;10.42;100.00
52949;BME280;38812;50.942;3.644;2023-02-04T11:11:18;103673.34;;;10.40;100.00
52949;BME280;38812;50.942;3.644;2023-02-04T11:16:30;103675.91;;;10.73;100.00
52949;BME280;38812;50.942;3.644;2023-02-04T11:19:05;103671.69;;;10.44;100.00
52949;BME280;38812;50.942;3.644;2023-02-04T11:29:31;103684.16;;;10.52;100.00
52949;BME280;38812;50.942;3.644;2023-02-04T11:32:54;103679.13;;;10.61;100.00
52949;BME280;38812;50.942;3.644;2023-02-04T11:34:49;103686.81;;;10.52;100.00
52949;BME280;38812;50.942;3.644;2023-02-04T11:37:37;103681.91;;;10.68;100.00
52949;BME280;38812;50.942;3.644;2023-02-04T11:42:46;103690.63;;;10.67;100.00
52949;BME280;38812;50.942;3.644;2023-02-04T11:45:12;103691.44;;;10.64;100.00
52949;BME280;38812;50.942;3.644;2023-02-04T11:47:39;103684.75;;;10.77;100.00
52949;BME280;38812;50.942;3.644;2023-02-04T11:50:40;103681.28;;;10.78;100.00
52949;BME280;38812;50.942;3.644;2023-02-04T11:53:09;103689.00;;;10.72;100.00
52949;BME280;38812;50.942;3.644;2023-02-04T11:55:43;103685.44;;;10.70;100.00
52949;BME280;38812;50.942;3.644;2023-02-04T11:58:16;103683.41;;;10.56;100.00
52949;BME280;38812;50.942;3.644;2023-02-04T12:00:42;103683.41;;;10.56;100.00
52949;BME280;38812;50.942;3.644;2023-02-04T12:03:29;103692.25;;;10.61;100.00
52949;BME280;38812;50.942;3.644;2023-02-04T12:05:56;103683.47;;;10.59;100.00
52949;BME280;38812;50.942;3.644;2023-02-04T12:13:23;103676.16;;;10.48;100.00
52949;BME280;38812;50.942;3.644;2023-02-04T12:16:04;103679.03;;;10.57;100.00
52949;BME280;38812;50.942;3.644;2023-02-04T12:18:31;103685.25;;;10.60;100.00
52949;BME280;38812;50.942;3.644;2023-02-04T12:20:58;103689.63;;;10.60;100.00
52949;BME280;38812;50.942;3.644;2023-02-04T12:23:25;103692.38;;;10.66;100.00
52949;BME280;38812;50.942;3.644;2023-02-04T12:25:51;103689.63;;;10.61;100.00
52949;BME280;38812;50.942;3.644;2023-02-04T12:28:16;103680.03;;;10.63;100.00
52949;BME280;38812;50.942;3.644;2023-02-04T12:30:42;103691.47;;;10.65;100.00
52949;BME280;38812;50.942;3.644;2023-02-04T12:33:07;103692.94;;;10.53;100.00
52949;BME280;38812;50.942;3.644;2023-02-04T12:35:34;103692.75;;;10.45;100.00
52949;BME280;38812;50.942;3.644;2023-02-04T12:37:59;103683.97;;;10.45;100.00
52949;BME280;38812;50.942;3.644;2023-02-04T12:40:25;103679.91;;;10.57;100.00
52949;BME280;38812;50.942;3.644;2023-02-04T12:42:50;103690.59;;;10.65;100.00
52949;BME280;38812;50.942;3.644;2023-02-04T12:45:16;103700.03;;;10.55;100.00
52949;BME280;38812;50.942;3.644;2023-02-04T12:47:43;103692.50;;;10.71;100.00
52949;BME280;38812;50.942;3.644;2023-02-04T12:50:10;103691.25;;;10.55;100.00
52949;BME280;38812;50.942;3.644;2023-02-04T12:52:36;103692.91;;;10.51;100.00
52949;BME280;38812;50.942;3.644;2023-02-04T12:55:02;103692.22;;;10.58;100.00
52949;BME280;38812;50.942;3.644;2023-02-04T12:57:30;103695.78;;;10.60;100.00
52949;BME280;38812;50.942;3.644;2023-02-04T12:59:55;103692.34;;;10.64;100.00
52949;BME280;38812;50.942;3.644;2023-02-04T13:02:24;103695.69;;;10.57;100.00
52949;BME280;38812;50.942;3.644;2023-02-04T13:04:50;103700.88;;;10.54;100.00